sensor_id;sensor_type;location;lat;lon;timestamp;P1;durP1;ratioP1;P2;durP2;ratioP2
58567;SDS011;44354;46.192;-1.076;2023-01-10T00:15:34;7.80;;;7.40;;
58567;SDS011;44354;46.192;-1.076;2023-01-10T00:18:01;8.10;;;7.70;;
58567;SDS011;44354;46.192;-1.076;2023-01-10T00:20:27;7.72;;;7.32;;
58567;SDS011;44354;46.192;-1.076;2023-01-10T00:22:53;7.18;;;6.88;;
58567;SDS011;44354;46.192;-1.076;2023-01-10T00:25:19;6.47;;;6.18;;
58567;SDS011;44354;46.192;-1.076;2023-01-10T00:27:45;7.00;;;6.70;;
58567;SDS011;44354;46.192;-1.076;2023-01-10T00:30:17;8.40;;;8.00;;
58567;SDS011;44354;46.192;-1.076;2023-01-10T00:32:44;8.43;;;8.02;;
58567;SDS011;44354;46.192;-1.076;2023-01-10T00:35:10;6.90;;;6.60;;
58567;SDS011;44354;46.192;-1.076;2023-01-10T00:37:37;7.75;;;7.35;;
58567;SDS011;44354;46.192;-1.076;2023-01-10T00:40:05;7.28;;;6.97;;
58567;SDS011;44354;46.192;-1.076;2023-01-10T00:43:08;6.43;;;6.13;;
58567;SDS011;44354;46.192;-1.076;2023-01-10T00:46:30;6.88;;;6.57;;
58567;SDS011;44354;46.192;-1.076;2023-01-10T00:49:04;6.68;;;6.38;;
58567;SDS011;44354;46.192;-1.076;2023-01-10T00:51:41;6.20;;;5.90;;
58567;SDS011;44354;46.192;-1.076;2023-01-10T00:54:11;6.90;;;6.60;;
58567;SDS011;44354;46.192;-1.076;2023-01-10T00:57:24;7.40;;;7.07;;
58567;SDS011;44354;46.192;-1.076;2023-01-10T01:05:29;6.72;;;6.43;;
58567;SDS011;44354;46.192;-1.076;2023-01-10T01:07:55;7.60;;;7.20;;
58567;SDS011;44354;46.192;-1.076;2023-01-10T01:10:21;6.90;;;6.60;;
58567;SDS011;44354;46.192;-1.076;2023-01-10T01:12:57;6.88;;;6.57;;
58567;SDS011;44354;46.192;-1.076;2023-01-10T01:15:24;6.40;;;6.10;;
58567;SDS011;44354;46.192;-1.076;2023-01-10T01:17:51;7.10;;;6.80;;
58567;SDS011;44354;46.192;-1.076;2023-01-10T01:20:28;6.78;;;6.47;;
58567;SDS011;44354;46.192;-1.076;2023-01-10T01:23:36;7.05;;;6.75;;
58567;SDS011;44354;46.192;-1.076;2023-01-10T01:26:31;6.47;;;6.18;;
58567;SDS011;44354;46.192;-1.076;2023-01-10T01:29:06;6.57;;;6.28;;
58567;SDS011;44354;46.192;-1.076;2023-01-10T01:32:25;6.93;;;6.63;;
58567;SDS011;44354;46.192;-1.076;2023-01-10T01:35:12;6.72;;;6.43;;
58567;SDS011;44354;46.192;-1.076;2023-01-10T01:38:19;6.82;;;6.53;;
58567;SDS011;44354;46.192;-1.076;2023-01-10T01:40:45;6.22;;;5.93;;
58567;SDS011;44354;46.192;-1.076;2023-01-10T01:44:05;6.80;;;6.50;;
58567;SDS011;44354;46.192;-1.076;2023-01-10T01:46:58;6.25;;;5.95;;
58567;SDS011;44354;46.192;-1.076;2023-01-10T01:53:44;6.60;;;6.30;;
58567;SDS011;44354;46.192;-1.076;2023-01-10T01:57:14;7.15;;;6.85;;
58567;SDS011;44354;46.192;-1.076;2023-01-10T02:00:05;6.50;;;6.20;;
58567;SDS011;44354;46.192;-1.076;2023-01-10T02:02:55;6.28;;;5.97;;
58567;SDS011;44354;46.192;-1.076;2023-01-10T02:06:18;6.63;;;6.32;;
58567;SDS011;44354;46.192;-1.076;2023-01-10T02:09:14;6.57;;;6.28;;
58567;SDS011;44354;46.192;-1.076;2023-01-10T02:12:15;6.50;;;6.20;;
58567;SDS011;44354;46.192;-1.076;2023-01-10T02:14:49;5.85;;;5.55;;
58567;SDS011;44354;46.192;-1.076;2023-01-10T02:17:27;8.15;;;7.65;;
58567;SDS011;44354;46.192;-1.076;2023-01-10T02:20:01;5.55;;;5.30;;
58567;SDS011;44354;46.192;-1.076;2023-01-10T02:26:30;6.30;;;6.00;;
58567;SDS011;44354;46.192;-1.076;2023-01-10T02:44:49;6.57;;;6.28;;
58567;SDS011;44354;46.192;-1.076;2023-01-10T02:47:56;6.35;;;6.05;;
58567;SDS011;44354;46.192;-1.076;2023-01-10T02:50:48;6.90;;;6.60;;
58567;SDS011;44354;46.192;-1.076;2023-01-10T02:53:47;6.15;;;5.85;;
58567;SDS011;44354;46.192;-1.076;2023-01-10T03:11:16;6.78;;;6.47;;
58567;SDS011;44354;46.192;-1.076;2023-01-10T03:16:45;6.13;;;5.82;;
58567;SDS011;44354;46.192;-1.076;2023-01-10T03:19:18;6.47;;;6.18;;
58567;SDS011;44354;46.192;-1.076;2023-01-10T03:21:46;6.68;;;6.38;;
58567;SDS011;44354;46.192;-1.076;2023-01-10T03:24:18;6.50;;;6.20;;
58567;SDS011;44354;46.192;-1.076;2023-01-10T03:29:39;6.38;;;6.07;;
58567;SDS011;44354;46.192;-1.076;2023-01-10T03:32:20;5.95;;;5.65;;
58567;SDS011;44354;46.192;-1.076;2023-01-10T03:34:51;7.15;;;6.85;;
58567;SDS011;44354;46.192;-1.076;2023-01-10T03:37:24;6.47;;;6.18;;
58567;SDS011;44354;46.192;-1.076;2023-01-10T03:43:51;6.38;;;6.07;;
58567;SDS011;44354;46.192;-1.076;2023-01-10T03:46:51;7.03;;;6.72;;
58567;SDS011;44354;46.192;-1.076;2023-01-10T03:49:46;6.72;;;6.43;;
58567;SDS011;44354;46.192;-1.076;2023-01-10T03:52:17;6.25;;;5.95;;
58567;SDS011;44354;46.192;-1.076;2023-01-10T03:55:09;6.38;;;6.07;;
58567;SDS011;44354;46.192;-1.076;2023-01-10T03:57:40;6.07;;;5.78;;
58567;SDS011;44354;46.192;-1.076;2023-01-10T04:00:07;6.38;;;6.07;;
58567;SDS011;44354;46.192;-1.076;2023-01-10T04:02:36;5.63;;;5.32;;
58567;SDS011;44354;46.192;-1.076;2023-01-10T04:05:08;4.80;;;4.60;;
58567;SDS011;44354;46.192;-1.076;2023-01-10T04:07:37;5.90;;;5.60;;
58567;SDS011;44354;46.192;-1.076;2023-01-10T04:10:08;6.18;;;5.88;;
58567;SDS011;44354;46.192;-1.076;2023-01-10T04:12:39;5.60;;;5.32;;
58567;SDS011;44354;46.192;-1.076;2023-01-10T04:15:15;5.63;;;5.32;;
58567;SDS011;44354;46.192;-1.076;2023-01-10T04:17:40;6.30;;;6.00;;
58567;SDS011;44354;46.192;-1.076;2023-01-10T04:20:06;5.15;;;4.95;;
58567;SDS011;44354;46.192;-1.076;2023-01-10T04:22:33;6.07;;;5.78;;
58567;SDS011;44354;46.192;-1.076;2023-01-10T04:24:58;6.18;;;5.88;;
58567;SDS011;44354;46.192;-1.076;2023-01-10T04:27:24;5.43;;;5.22;;
58567;SDS011;44354;46.192;-1.076;2023-01-10T04:29:50;5.88;;;5.57;;
58567;SDS011;44354;46.192;-1.076;2023-01-10T04:32:17;5.88;;;5.57;;
58567;SDS011;44354;46.192;-1.076;2023-01-10T04:34:43;6.05;;;5.75;;
58567;SDS011;44354;46.192;-1.076;2023-01-10T04:37:11;5.82;;;5.53;;
58567;SDS011;44354;46.192;-1.076;2023-01-10T04:39:37;5.90;;;5.60;;
58567;SDS011;44354;46.192;-1.076;2023-01-10T04:42:02;5.65;;;5.38;;
58567;SDS011;44354;46.192;-1.076;2023-01-10T04:44:28;5.97;;;5.68;;
58567;SDS011;44354;46.192;-1.076;2023-01-10T04:46:54;5.47;;;5.25;;
58567;SDS011;44354;46.192;-1.076;2023-01-10T04:49:24;5.70;;;5.40;;
58567;SDS011;44354;46.192;-1.076;2023-01-10T04:51:50;6.72;;;6.43;;
58567;SDS011;44354;46.192;-1.076;2023-01-10T04:54:22;6.47;;;6.18;;
58567;SDS011;44354;46.192;-1.076;2023-01-10T04:56:50;6.30;;;6.00;;
58567;SDS011;44354;46.192;-1.076;2023-01-10T04:59:19;6.03;;;5.72;;
58567;SDS011;44354;46.192;-1.076;2023-01-10T05:01:57;5.40;;;5.20;;
58567;SDS011;44354;46.192;-1.076;2023-01-10T05:05:01;5.60;;;5.35;;
58567;SDS011;44354;46.192;-1.076;2023-01-10T05:07:30;5.60;;;5.30;;
58567;SDS011;44354;46.192;-1.076;2023-01-10T05:10:02;5.40;;;5.20;;
58567;SDS011;44354;46.192;-1.076;2023-01-10T05:12:30;5.35;;;5.15;;
58567;SDS011;44354;46.192;-1.076;2023-01-10T05:14:59;5.85;;;5.55;;
58567;SDS011;44354;46.192;-1.076;2023-01-10T05:17:34;5.88;;;5.57;;
58567;SDS011;44354;46.192;-1.076;2023-01-10T05:20:02;5.15;;;4.95;;
58567;SDS011;44354;46.192;-1.076;2023-01-10T05:22:28;5.38;;;5.18;;
58567;SDS011;44354;46.192;-1.076;2023-01-10T05:25:00;5.40;;;5.20;;
58567;SDS011;44354;46.192;-1.076;2023-01-10T05:27:32;4.82;;;4.63;;
58567;SDS011;44354;46.192;-1.076;2023-01-10T05:30:01;5.13;;;4.93;;
58567;SDS011;44354;46.192;-1.076;2023-01-10T05:32:57;4.68;;;4.47;;
58567;SDS011;44354;46.192;-1.076;2023-01-10T05:37:59;4.63;;;4.43;;
58567;SDS011;44354;46.192;-1.076;2023-01-10T05:40:25;4.55;;;4.35;;
58567;SDS011;44354;46.192;-1.076;2023-01-10T05:48:39;3.95;;;3.75;;
58567;SDS011;44354;46.192;-1.076;2023-01-10T05:51:06;3.88;;;3.67;;
58567;SDS011;44354;46.192;-1.076;2023-01-10T05:56:16;3.83;;;3.63;;
58567;SDS011;44354;46.192;-1.076;2023-01-10T05:58:42;3.78;;;3.58;;
58567;SDS011;44354;46.192;-1.076;2023-01-10T06:14:05;3.40;;;3.30;;
58567;SDS011;44354;46.192;-1.076;2023-01-10T06:16:31;4.10;;;3.90;;
58567;SDS011;44354;46.192;-1.076;2023-01-10T06:18:57;4.13;;;3.92;;
58567;SDS011;44354;46.192;-1.076;2023-01-10T06:21:23;3.42;;;3.33;;
58567;SDS011;44354;46.192;-1.076;2023-01-10T06:23:49;3.22;;;3.13;;
58567;SDS011;44354;46.192;-1.076;2023-01-10T06:26:15;3.33;;;3.22;;
58567;SDS011;44354;46.192;-1.076;2023-01-10T06:28:42;3.17;;;3.08;;
58567;SDS011;44354;46.192;-1.076;2023-01-10T06:31:08;3.22;;;3.13;;
58567;SDS011;44354;46.192;-1.076;2023-01-10T06:33:37;3.53;;;3.42;;
58567;SDS011;44354;46.192;-1.076;2023-01-10T06:36:03;3.30;;;3.20;;
58567;SDS011;44354;46.192;-1.076;2023-01-10T06:38:29;3.10;;;3.00;;
58567;SDS011;44354;46.192;-1.076;2023-01-10T06:40:54;3.50;;;3.30;;
58567;SDS011;44354;46.192;-1.076;2023-01-10T06:43:24;2.70;;;2.60;;
58567;SDS011;44354;46.192;-1.076;2023-01-10T06:48:25;2.97;;;2.88;;
58567;SDS011;44354;46.192;-1.076;2023-01-10T06:50:52;2.60;;;2.50;;
58567;SDS011;44354;46.192;-1.076;2023-01-10T06:53:21;2.40;;;2.30;;
58567;SDS011;44354;46.192;-1.076;2023-01-10T06:58:35;2.40;;;2.30;;
58567;SDS011;44354;46.192;-1.076;2023-01-10T07:01:04;2.40;;;2.30;;
58567;SDS011;44354;46.192;-1.076;2023-01-10T07:08:55;3.53;;;3.33;;
58567;SDS011;44354;46.192;-1.076;2023-01-10T07:11:24;2.67;;;2.58;;
58567;SDS011;44354;46.192;-1.076;2023-01-10T07:13:50;2.67;;;2.58;;
58567;SDS011;44354;46.192;-1.076;2023-01-10T07:16:18;2.50;;;2.40;;
58567;SDS011;44354;46.192;-1.076;2023-01-10T07:18:43;2.33;;;2.22;;
58567;SDS011;44354;46.192;-1.076;2023-01-10T07:21:10;2.10;;;2.00;;
58567;SDS011;44354;46.192;-1.076;2023-01-10T07:23:36;2.45;;;2.35;;
58567;SDS011;44354;46.192;-1.076;2023-01-10T07:26:04;2.25;;;2.15;;
58567;SDS011;44354;46.192;-1.076;2023-01-10T07:28:33;2.22;;;2.13;;
58567;SDS011;44354;46.192;-1.076;2023-01-10T07:31:01;2.55;;;2.40;;
58567;SDS011;44354;46.192;-1.076;2023-01-10T07:33:34;2.80;;;2.60;;
58567;SDS011;44354;46.192;-1.076;2023-01-10T07:36:01;2.08;;;1.98;;
58567;SDS011;44354;46.192;-1.076;2023-01-10T07:38:46;2.55;;;2.45;;
58567;SDS011;44354;46.192;-1.076;2023-01-10T07:41:14;2.00;;;1.90;;
58567;SDS011;44354;46.192;-1.076;2023-01-10T07:43:59;1.70;;;1.70;;
58567;SDS011;44354;46.192;-1.076;2023-01-10T07:49:23;1.77;;;1.75;;
58567;SDS011;44354;46.192;-1.076;2023-01-10T07:51:48;1.67;;;1.67;;
58567;SDS011;44354;46.192;-1.076;2023-01-10T07:54:14;2.03;;;1.92;;
58567;SDS011;44354;46.192;-1.076;2023-01-10T07:56:42;2.28;;;2.17;;
58567;SDS011;44354;46.192;-1.076;2023-01-10T07:59:08;3.40;;;3.20;;
58567;SDS011;44354;46.192;-1.076;2023-01-10T08:01:34;2.22;;;2.13;;
58567;SDS011;44354;46.192;-1.076;2023-01-10T08:03:59;1.60;;;1.60;;
58567;SDS011;44354;46.192;-1.076;2023-01-10T08:06:25;2.15;;;2.05;;
58567;SDS011;44354;46.192;-1.076;2023-01-10T08:08:51;1.40;;;1.40;;
58567;SDS011;44354;46.192;-1.076;2023-01-10T08:11:23;2.10;;;2.00;;
58567;SDS011;44354;46.192;-1.076;2023-01-10T08:13:49;2.08;;;1.98;;
58567;SDS011;44354;46.192;-1.076;2023-01-10T08:16:14;1.40;;;1.40;;
58567;SDS011;44354;46.192;-1.076;2023-01-10T08:18:40;1.50;;;1.50;;
58567;SDS011;44354;46.192;-1.076;2023-01-10T08:21:09;1.58;;;1.48;;
58567;SDS011;44354;46.192;-1.076;2023-01-10T08:23:35;1.20;;;1.20;;
58567;SDS011;44354;46.192;-1.076;2023-01-10T08:26:00;1.17;;;1.17;;
58567;SDS011;44354;46.192;-1.076;2023-01-10T08:28:26;1.20;;;1.20;;
58567;SDS011;44354;46.192;-1.076;2023-01-10T08:30:53;0.90;;;0.90;;
58567;SDS011;44354;46.192;-1.076;2023-01-10T08:33:22;1.38;;;1.35;;
58567;SDS011;44354;46.192;-1.076;2023-01-10T08:35:52;1.08;;;1.08;;
58567;SDS011;44354;46.192;-1.076;2023-01-10T08:38:19;1.05;;;1.05;;
58567;SDS011;44354;46.192;-1.076;2023-01-10T08:40:45;0.98;;;0.95;;
58567;SDS011;44354;46.192;-1.076;2023-01-10T08:43:11;1.17;;;1.17;;
58567;SDS011;44354;46.192;-1.076;2023-01-10T08:45:37;4.68;;;4.22;;
58567;SDS011;44354;46.192;-1.076;2023-01-10T08:48:04;0.93;;;0.90;;
58567;SDS011;44354;46.192;-1.076;2023-01-10T08:50:36;1.33;;;0.80;;
58567;SDS011;44354;46.192;-1.076;2023-01-10T08:53:02;0.90;;;0.90;;
58567;SDS011;44354;46.192;-1.076;2023-01-10T08:55:31;0.65;;;0.65;;
58567;SDS011;44354;46.192;-1.076;2023-01-10T08:58:18;0.80;;;0.80;;
58567;SDS011;44354;46.192;-1.076;2023-01-10T09:01:05;0.88;;;0.88;;
58567;SDS011;44354;46.192;-1.076;2023-01-10T09:04:15;1.80;;;1.73;;
58567;SDS011;44354;46.192;-1.076;2023-01-10T09:06:42;0.60;;;0.60;;
58567;SDS011;44354;46.192;-1.076;2023-01-10T09:09:27;2.67;;;1.00;;
58567;SDS011;44354;46.192;-1.076;2023-01-10T09:11:53;0.95;;;0.90;;
58567;SDS011;44354;46.192;-1.076;2023-01-10T09:14:19;7.80;;;2.28;;
58567;SDS011;44354;46.192;-1.076;2023-01-10T09:16:44;11.48;;;1.80;;
58567;SDS011;44354;46.192;-1.076;2023-01-10T09:19:10;13.98;;;2.08;;
58567;SDS011;44354;46.192;-1.076;2023-01-10T09:24:19;0.63;;;0.63;;
58567;SDS011;44354;46.192;-1.076;2023-01-10T09:26:45;5.05;;;1.00;;
58567;SDS011;44354;46.192;-1.076;2023-01-10T09:29:10;0.60;;;0.60;;
58567;SDS011;44354;46.192;-1.076;2023-01-10T09:31:36;0.75;;;0.75;;
58567;SDS011;44354;46.192;-1.076;2023-01-10T09:34:02;0.88;;;0.88;;
58567;SDS011;44354;46.192;-1.076;2023-01-10T09:36:27;2.78;;;2.60;;
58567;SDS011;44354;46.192;-1.076;2023-01-10T09:38:53;2.65;;;1.55;;
58567;SDS011;44354;46.192;-1.076;2023-01-10T09:51:56;5.05;;;1.02;;
58567;SDS011;44354;46.192;-1.076;2023-01-10T09:54:39;0.50;;;0.50;;
58567;SDS011;44354;46.192;-1.076;2023-01-10T09:57:08;8.30;;;1.05;;
58567;SDS011;44354;46.192;-1.076;2023-01-10T09:59:40;1.02;;;1.02;;
58567;SDS011;44354;46.192;-1.076;2023-01-10T10:05:03;1.52;;;1.42;;
58567;SDS011;44354;46.192;-1.076;2023-01-10T10:07:41;3.40;;;2.35;;
58567;SDS011;44354;46.192;-1.076;2023-01-10T10:10:11;1.33;;;0.93;;
58567;SDS011;44354;46.192;-1.076;2023-01-10T10:12:47;4.82;;;2.08;;
58567;SDS011;44354;46.192;-1.076;2023-01-10T10:17:56;1.02;;;1.02;;
58567;SDS011;44354;46.192;-1.076;2023-01-10T10:20:34;1.45;;;0.80;;
58567;SDS011;44354;46.192;-1.076;2023-01-10T10:34:47;11.18;;;2.33;;
58567;SDS011;44354;46.192;-1.076;2023-01-10T10:37:21;1.13;;;1.13;;
58567;SDS011;44354;46.192;-1.076;2023-01-10T10:43:21;4.32;;;3.10;;
58567;SDS011;44354;46.192;-1.076;2023-01-10T10:46:05;11.63;;;3.45;;
58567;SDS011;44354;46.192;-1.076;2023-01-10T10:48:53;30.10;;;2.25;;
58567;SDS011;44354;46.192;-1.076;2023-01-10T10:53:49;0.80;;;0.80;;
58567;SDS011;44354;46.192;-1.076;2023-01-10T10:56:16;6.20;;;2.42;;
58567;SDS011;44354;46.192;-1.076;2023-01-10T10:58:47;5.28;;;2.42;;
58567;SDS011;44354;46.192;-1.076;2023-01-10T11:01:15;18.23;;;2.78;;
58567;SDS011;44354;46.192;-1.076;2023-01-10T11:06:28;20.58;;;4.65;;
58567;SDS011;44354;46.192;-1.076;2023-01-10T11:14:40;7.15;;;2.80;;
58567;SDS011;44354;46.192;-1.076;2023-01-10T11:17:19;22.17;;;3.97;;
58567;SDS011;44354;46.192;-1.076;2023-01-10T11:20:04;31.25;;;5.57;;
58567;SDS011;44354;46.192;-1.076;2023-01-10T11:22:44;33.30;;;4.72;;
58567;SDS011;44354;46.192;-1.076;2023-01-10T11:25:17;23.20;;;4.78;;
58567;SDS011;44354;46.192;-1.076;2023-01-10T11:27:54;34.00;;;5.35;;
58567;SDS011;44354;46.192;-1.076;2023-01-10T11:30:28;28.90;;;4.70;;
58567;SDS011;44354;46.192;-1.076;2023-01-10T11:33:01;31.48;;;5.82;;
58567;SDS011;44354;46.192;-1.076;2023-01-10T11:35:38;35.22;;;5.32;;
58567;SDS011;44354;46.192;-1.076;2023-01-10T11:38:16;43.65;;;8.20;;
58567;SDS011;44354;46.192;-1.076;2023-01-10T11:41:00;41.80;;;8.45;;
58567;SDS011;44354;46.192;-1.076;2023-01-10T11:45:54;39.28;;;5.93;;
58567;SDS011;44354;46.192;-1.076;2023-01-10T11:51:27;31.95;;;5.70;;
58567;SDS011;44354;46.192;-1.076;2023-01-10T11:53:58;31.08;;;5.80;;
58567;SDS011;44354;46.192;-1.076;2023-01-10T11:56:33;42.80;;;6.38;;
58567;SDS011;44354;46.192;-1.076;2023-01-10T11:59:13;33.08;;;6.10;;
58567;SDS011;44354;46.192;-1.076;2023-01-10T12:04:51;42.35;;;7.38;;
58567;SDS011;44354;46.192;-1.076;2023-01-10T12:07:51;33.33;;;6.38;;
58567;SDS011;44354;46.192;-1.076;2023-01-10T12:10:32;35.60;;;6.05;;
58567;SDS011;44354;46.192;-1.076;2023-01-10T12:13:13;30.90;;;6.93;;
58567;SDS011;44354;46.192;-1.076;2023-01-10T12:15:40;41.22;;;6.30;;
58567;SDS011;44354;46.192;-1.076;2023-01-10T12:18:06;33.75;;;6.43;;
58567;SDS011;44354;46.192;-1.076;2023-01-10T12:20:32;27.50;;;5.78;;
58567;SDS011;44354;46.192;-1.076;2023-01-10T12:23:10;29.02;;;6.60;;
58567;SDS011;44354;46.192;-1.076;2023-01-10T12:25:43;34.45;;;6.38;;
58567;SDS011;44354;46.192;-1.076;2023-01-10T12:28:17;29.00;;;6.72;;
58567;SDS011;44354;46.192;-1.076;2023-01-10T12:30:47;26.90;;;8.18;;
58567;SDS011;44354;46.192;-1.076;2023-01-10T12:33:21;23.42;;;6.07;;
58567;SDS011;44354;46.192;-1.076;2023-01-10T12:39:05;29.23;;;6.63;;
58567;SDS011;44354;46.192;-1.076;2023-01-10T12:44:29;25.45;;;7.10;;
58567;SDS011;44354;46.192;-1.076;2023-01-10T12:49:47;23.90;;;6.07;;
58567;SDS011;44354;46.192;-1.076;2023-01-10T12:52:16;20.27;;;5.70;;
58567;SDS011;44354;46.192;-1.076;2023-01-10T12:55:16;20.52;;;6.00;;
58567;SDS011;44354;46.192;-1.076;2023-01-10T12:57:47;27.63;;;6.40;;
58567;SDS011;44354;46.192;-1.076;2023-01-10T13:02:53;19.85;;;6.13;;
58567;SDS011;44354;46.192;-1.076;2023-01-10T13:05:24;18.00;;;5.38;;
58567;SDS011;44354;46.192;-1.076;2023-01-10T13:08:06;5.20;;;4.78;;
58567;SDS011;44354;46.192;-1.076;2023-01-10T13:10:39;25.45;;;6.78;;
58567;SDS011;44354;46.192;-1.076;2023-01-10T13:19:01;15.60;;;5.72;;
58567;SDS011;44354;46.192;-1.076;2023-01-10T13:21:40;6.07;;;4.80;;
58567;SDS011;44354;46.192;-1.076;2023-01-10T13:24:20;4.75;;;4.45;;
58567;SDS011;44354;46.192;-1.076;2023-01-10T13:26:54;16.45;;;5.93;;
58567;SDS011;44354;46.192;-1.076;2023-01-10T13:29:50;14.20;;;7.03;;
58567;SDS011;44354;46.192;-1.076;2023-01-10T13:32:22;13.18;;;5.50;;
58567;SDS011;44354;46.192;-1.076;2023-01-10T13:35:17;9.70;;;4.72;;
58567;SDS011;44354;46.192;-1.076;2023-01-10T13:37:49;12.77;;;5.77;;
58567;SDS011;44354;46.192;-1.076;2023-01-10T13:40:26;6.57;;;6.13;;
58567;SDS011;44354;46.192;-1.076;2023-01-10T13:52:19;5.78;;;5.00;;
58567;SDS011;44354;46.192;-1.076;2023-01-10T13:54:54;4.57;;;4.38;;
58567;SDS011;44354;46.192;-1.076;2023-01-10T13:57:47;8.93;;;5.90;;
58567;SDS011;44354;46.192;-1.076;2023-01-10T14:00:22;4.80;;;4.60;;
58567;SDS011;44354;46.192;-1.076;2023-01-10T14:03:34;5.40;;;5.00;;
58567;SDS011;44354;46.192;-1.076;2023-01-10T14:06:05;5.63;;;5.13;;
58567;SDS011;44354;46.192;-1.076;2023-01-10T14:08:50;5.25;;;4.85;;
58567;SDS011;44354;46.192;-1.076;2023-01-10T14:11:19;4.47;;;4.28;;
58567;SDS011;44354;46.192;-1.076;2023-01-10T14:14:12;8.43;;;7.38;;
58567;SDS011;44354;46.192;-1.076;2023-01-10T14:17:08;5.53;;;4.65;;
58567;SDS011;44354;46.192;-1.076;2023-01-10T14:19:44;4.82;;;4.53;;
58567;SDS011;44354;46.192;-1.076;2023-01-10T14:22:28;6.22;;;5.70;;
58567;SDS011;44354;46.192;-1.076;2023-01-10T14:24:59;5.72;;;5.25;;
58567;SDS011;44354;46.192;-1.076;2023-01-10T14:27:45;6.65;;;5.05;;
58567;SDS011;44354;46.192;-1.076;2023-01-10T14:30:49;4.93;;;4.35;;
58567;SDS011;44354;46.192;-1.076;2023-01-10T14:33:19;9.73;;;5.13;;
58567;SDS011;44354;46.192;-1.076;2023-01-10T14:35:51;4.43;;;4.22;;
58567;SDS011;44354;46.192;-1.076;2023-01-10T14:38:23;3.40;;;3.20;;
58567;SDS011;44354;46.192;-1.076;2023-01-10T14:41:15;4.05;;;3.85;;
58567;SDS011;44354;46.192;-1.076;2023-01-10T14:44:00;7.68;;;3.85;;
58567;SDS011;44354;46.192;-1.076;2023-01-10T14:46:50;7.13;;;4.18;;
58567;SDS011;44354;46.192;-1.076;2023-01-10T14:49:28;5.47;;;4.97;;
58567;SDS011;44354;46.192;-1.076;2023-01-10T14:55:27;4.43;;;4.03;;
58567;SDS011;44354;46.192;-1.076;2023-01-10T14:58:13;4.35;;;4.13;;
58567;SDS011;44354;46.192;-1.076;2023-01-10T15:00:42;4.30;;;4.10;;
58567;SDS011;44354;46.192;-1.076;2023-01-10T15:03:17;4.05;;;3.75;;
58567;SDS011;44354;46.192;-1.076;2023-01-10T15:05:45;4.32;;;4.13;;
58567;SDS011;44354;46.192;-1.076;2023-01-10T15:08:33;8.75;;;4.38;;
58567;SDS011;44354;46.192;-1.076;2023-01-10T15:11:01;4.03;;;3.83;;
58567;SDS011;44354;46.192;-1.076;2023-01-10T15:13:32;5.18;;;4.78;;
58567;SDS011;44354;46.192;-1.076;2023-01-10T15:16:01;4.10;;;3.90;;
58567;SDS011;44354;46.192;-1.076;2023-01-10T15:18:36;4.38;;;4.07;;
58567;SDS011;44354;46.192;-1.076;2023-01-10T15:21:09;4.07;;;3.88;;
58567;SDS011;44354;46.192;-1.076;2023-01-10T15:23:39;6.53;;;4.40;;
58567;SDS011;44354;46.192;-1.076;2023-01-10T15:26:18;5.25;;;4.90;;
58567;SDS011;44354;46.192;-1.076;2023-01-10T15:31:47;6.20;;;4.68;;
58567;SDS011;44354;46.192;-1.076;2023-01-10T15:34:15;4.05;;;3.85;;
58567;SDS011;44354;46.192;-1.076;2023-01-10T15:36:53;5.63;;;5.32;;
58567;SDS011;44354;46.192;-1.076;2023-01-10T15:39:23;3.47;;;3.38;;
58567;SDS011;44354;46.192;-1.076;2023-01-10T15:42:00;3.80;;;3.58;;
58567;SDS011;44354;46.192;-1.076;2023-01-10T15:44:42;4.53;;;4.00;;
58567;SDS011;44354;46.192;-1.076;2023-01-10T15:50:01;4.78;;;4.43;;
58567;SDS011;44354;46.192;-1.076;2023-01-10T15:52:56;4.28;;;4.05;;
58567;SDS011;44354;46.192;-1.076;2023-01-10T15:58:29;4.45;;;4.03;;
58567;SDS011;44354;46.192;-1.076;2023-01-10T16:01:02;3.28;;;3.08;;
58567;SDS011;44354;46.192;-1.076;2023-01-10T16:03:38;3.33;;;3.13;;
58567;SDS011;44354;46.192;-1.076;2023-01-10T16:06:28;3.38;;;3.05;;
58567;SDS011;44354;46.192;-1.076;2023-01-10T16:09:21;3.03;;;2.83;;
58567;SDS011;44354;46.192;-1.076;2023-01-10T16:11:47;3.10;;;2.90;;
58567;SDS011;44354;46.192;-1.076;2023-01-10T16:14:34;2.50;;;2.40;;
58567;SDS011;44354;46.192;-1.076;2023-01-10T16:17:02;2.13;;;2.03;;
58567;SDS011;44354;46.192;-1.076;2023-01-10T16:19:28;4.93;;;4.40;;
58567;SDS011;44354;46.192;-1.076;2023-01-10T16:25:38;2.63;;;2.42;;
58567;SDS011;44354;46.192;-1.076;2023-01-10T16:28:46;3.40;;;3.05;;
58567;SDS011;44354;46.192;-1.076;2023-01-10T16:34:43;9.10;;;3.90;;
58567;SDS011;44354;46.192;-1.076;2023-01-10T16:40:20;2.40;;;2.28;;
58567;SDS011;44354;46.192;-1.076;2023-01-10T16:43:50;3.70;;;2.40;;
58567;SDS011;44354;46.192;-1.076;2023-01-10T16:46:48;1.98;;;1.88;;
58567;SDS011;44354;46.192;-1.076;2023-01-10T16:49:24;3.60;;;3.33;;
58567;SDS011;44354;46.192;-1.076;2023-01-10T16:51:50;2.58;;;2.47;;
58567;SDS011;44354;46.192;-1.076;2023-01-10T16:54:17;2.00;;;1.90;;
58567;SDS011;44354;46.192;-1.076;2023-01-10T16:56:45;4.65;;;3.10;;
58567;SDS011;44354;46.192;-1.076;2023-01-10T16:59:12;3.33;;;2.38;;
58567;SDS011;44354;46.192;-1.076;2023-01-10T17:01:40;2.03;;;1.92;;
58567;SDS011;44354;46.192;-1.076;2023-01-10T17:04:11;4.03;;;2.80;;
58567;SDS011;44354;46.192;-1.076;2023-01-10T17:06:39;2.10;;;2.00;;
58567;SDS011;44354;46.192;-1.076;2023-01-10T17:09:06;2.80;;;2.50;;
58567;SDS011;44354;46.192;-1.076;2023-01-10T17:11:35;4.65;;;4.25;;
58567;SDS011;44354;46.192;-1.076;2023-01-10T17:14:04;12.63;;;4.32;;
58567;SDS011;44354;46.192;-1.076;2023-01-10T17:16:30;7.68;;;3.33;;
58567;SDS011;44354;46.192;-1.076;2023-01-10T17:18:56;7.93;;;3.75;;
58567;SDS011;44354;46.192;-1.076;2023-01-10T17:21:22;4.15;;;3.90;;
58567;SDS011;44354;46.192;-1.076;2023-01-10T17:23:49;23.63;;;4.32;;
58567;SDS011;44354;46.192;-1.076;2023-01-10T17:26:15;10.65;;;3.40;;
58567;SDS011;44354;46.192;-1.076;2023-01-10T17:28:43;38.30;;;11.40;;
58567;SDS011;44354;46.192;-1.076;2023-01-10T17:31:10;3.85;;;3.13;;
58567;SDS011;44354;46.192;-1.076;2023-01-10T17:33:36;17.80;;;5.97;;
58567;SDS011;44354;46.192;-1.076;2023-01-10T17:36:02;17.10;;;4.75;;
58567;SDS011;44354;46.192;-1.076;2023-01-10T17:38:29;26.33;;;11.77;;
58567;SDS011;44354;46.192;-1.076;2023-01-10T17:41:15;14.90;;;3.47;;
58567;SDS011;44354;46.192;-1.076;2023-01-10T17:43:44;16.77;;;4.65;;
58567;SDS011;44354;46.192;-1.076;2023-01-10T17:46:09;14.80;;;5.35;;
58567;SDS011;44354;46.192;-1.076;2023-01-10T17:48:44;18.75;;;5.10;;
58567;SDS011;44354;46.192;-1.076;2023-01-10T17:51:13;11.60;;;3.92;;
58567;SDS011;44354;46.192;-1.076;2023-01-10T17:53:39;6.13;;;2.35;;
58567;SDS011;44354;46.192;-1.076;2023-01-10T17:56:05;19.40;;;6.80;;
58567;SDS011;44354;46.192;-1.076;2023-01-10T17:58:31;10.52;;;2.97;;
58567;SDS011;44354;46.192;-1.076;2023-01-10T18:00:57;14.63;;;6.40;;
58567;SDS011;44354;46.192;-1.076;2023-01-10T18:03:23;4.72;;;2.75;;
58567;SDS011;44354;46.192;-1.076;2023-01-10T18:08:21;3.75;;;2.15;;
58567;SDS011;44354;46.192;-1.076;2023-01-10T18:10:48;2.50;;;2.15;;
58567;SDS011;44354;46.192;-1.076;2023-01-10T18:13:15;12.48;;;3.38;;
58567;SDS011;44354;46.192;-1.076;2023-01-10T18:15:43;11.48;;;3.33;;
58567;SDS011;44354;46.192;-1.076;2023-01-10T18:18:13;24.08;;;6.07;;
58567;SDS011;44354;46.192;-1.076;2023-01-10T18:20:41;8.52;;;2.10;;
58567;SDS011;44354;46.192;-1.076;2023-01-10T18:23:11;15.98;;;6.82;;
58567;SDS011;44354;46.192;-1.076;2023-01-10T18:25:52;9.05;;;3.00;;
58567;SDS011;44354;46.192;-1.076;2023-01-10T18:28:24;5.45;;;2.25;;
58567;SDS011;44354;46.192;-1.076;2023-01-10T18:30:55;9.65;;;2.83;;
58567;SDS011;44354;46.192;-1.076;2023-01-10T18:33:21;8.60;;;3.08;;
58567;SDS011;44354;46.192;-1.076;2023-01-10T18:35:49;2.38;;;2.08;;
58567;SDS011;44354;46.192;-1.076;2023-01-10T18:38:15;10.52;;;3.42;;
58567;SDS011;44354;46.192;-1.076;2023-01-10T18:40:42;19.30;;;4.28;;
58567;SDS011;44354;46.192;-1.076;2023-01-10T18:43:11;12.23;;;3.38;;